sensor_id;sensor_type;location;lat;lon;timestamp;pressure;altitude;pressure_sealevel;temperature;humidity
21401;BME280;18038;50.166;18.908;2022-07-29T00:01:45;98264.94;;;15.62;56.11
21401;BME280;18038;50.166;18.908;2022-07-29T00:04:51;98263.50;;;15.59;56.35
21401;BME280;18038;50.166;18.908;2022-07-29T00:07:59;98269.66;;;15.66;55.54
21401;BME280;18038;50.166;18.908;2022-07-29T00:11:07;98266.97;;;15.66;55.55
21401;BME280;18038;50.166;18.908;2022-07-29T00:14:24;98268.44;;;15.62;55.66
21401;BME280;18038;50.166;18.908;2022-07-29T00:17:29;98260.97;;;15.64;55.07
21401;BME280;18038;50.166;18.908;2022-07-29T00:20:36;98254.53;;;15.65;55.36
21401;BME280;18038;50.166;18.908;2022-07-29T00:23:46;98263.91;;;15.63;55.47
21401;BME280;18038;50.166;18.908;2022-07-29T00:29:03;98253.94;;;15.63;55.36
21401;BME280;18038;50.166;18.908;2022-07-29T00:32:32;98252.41;;;15.49;55.22
21401;BME280;18038;50.166;18.908;2022-07-29T00:35:38;98255.78;;;15.44;55.71
21401;BME280;18038;50.166;18.908;2022-07-29T00:38:51;98250.97;;;15.46;55.27
21401;BME280;18038;50.166;18.908;2022-07-29T00:41:58;98251.88;;;15.40;54.92
21401;BME280;18038;50.166;18.908;2022-07-29T00:45:06;98244.00;;;15.39;55.16
21401;BME280;18038;50.166;18.908;2022-07-29T00:48:12;98243.00;;;15.40;54.82
21401;BME280;18038;50.166;18.908;2022-07-29T00:51:18;98239.91;;;15.36;54.55
21401;BME280;18038;50.166;18.908;2022-07-29T00:54:24;98242.44;;;15.31;54.38
21401;BME280;18038;50.166;18.908;2022-07-29T00:57:42;98232.38;;;15.20;54.30
21401;BME280;18038;50.166;18.908;2022-07-29T01:00:51;98227.91;;;15.14;54.60
21401;BME280;18038;50.166;18.908;2022-07-29T01:04:00;98228.72;;;15.14;54.30
21401;BME280;18038;50.166;18.908;2022-07-29T01:07:10;98232.91;;;15.10;53.44
21401;BME280;18038;50.166;18.908;2022-07-29T01:10:20;98236.44;;;15.04;53.92
21401;BME280;18038;50.166;18.908;2022-07-29T01:13:29;98239.84;;;14.93;54.12
21401;BME280;18038;50.166;18.908;2022-07-29T01:16:51;98236.78;;;14.89;53.58
21401;BME280;18038;50.166;18.908;2022-07-29T01:20:12;98233.75;;;14.79;54.02
21401;BME280;18038;50.166;18.908;2022-07-29T01:27:33;98228.09;;;14.87;53.08
21401;BME280;18038;50.166;18.908;2022-07-29T01:30:59;98226.84;;;14.90;52.23
21401;BME280;18038;50.166;18.908;2022-07-29T01:34:15;98215.91;;;14.85;52.64
21401;BME280;18038;50.166;18.908;2022-07-29T01:37:33;98214.28;;;14.84;52.04
21401;BME280;18038;50.166;18.908;2022-07-29T01:40:49;98213.84;;;14.87;51.99
21401;BME280;18038;50.166;18.908;2022-07-29T01:44:02;98214.41;;;14.89;52.03
21401;BME280;18038;50.166;18.908;2022-07-29T01:47:25;98218.81;;;14.83;51.79
21401;BME280;18038;50.166;18.908;2022-07-29T01:50:45;98203.94;;;14.80;51.86
21401;BME280;18038;50.166;18.908;2022-07-29T01:53:58;98207.47;;;14.74;51.80
21401;BME280;18038;50.166;18.908;2022-07-29T01:57:14;98212.84;;;14.74;52.19
21401;BME280;18038;50.166;18.908;2022-07-29T02:00:27;98209.31;;;14.80;51.75
21401;BME280;18038;50.166;18.908;2022-07-29T02:03:44;98214.50;;;14.75;51.36
21401;BME280;18038;50.166;18.908;2022-07-29T02:06:57;98211.66;;;14.70;51.62
21401;BME280;18038;50.166;18.908;2022-07-29T02:10:08;98204.63;;;14.69;51.68
21401;BME280;18038;50.166;18.908;2022-07-29T02:13:18;98207.09;;;14.71;51.41
21401;BME280;18038;50.166;18.908;2022-07-29T02:16:31;98212.69;;;14.69;51.14
21401;BME280;18038;50.166;18.908;2022-07-29T02:19:44;98216.00;;;14.65;51.00
21401;BME280;18038;50.166;18.908;2022-07-29T02:22:54;98209.00;;;14.64;50.61
21401;BME280;18038;50.166;18.908;2022-07-29T02:26:03;98205.50;;;14.63;50.74
21401;BME280;18038;50.166;18.908;2022-07-29T02:29:11;98204.88;;;14.61;50.70
21401;BME280;18038;50.166;18.908;2022-07-29T02:32:22;98206.78;;;14.54;51.20
21401;BME280;18038;50.166;18.908;2022-07-29T02:35:34;98191.09;;;14.51;51.01
21401;BME280;18038;50.166;18.908;2022-07-29T02:38:42;98191.91;;;14.51;50.88
21401;BME280;18038;50.166;18.908;2022-07-29T02:42:01;98191.53;;;14.48;51.05
21401;BME280;18038;50.166;18.908;2022-07-29T02:45:11;98183.47;;;14.48;51.15
21401;BME280;18038;50.166;18.908;2022-07-29T02:48:18;98180.78;;;14.48;50.93
21401;BME280;18038;50.166;18.908;2022-07-29T02:51:41;98177.66;;;14.51;50.99
21401;BME280;18038;50.166;18.908;2022-07-29T02:54:55;98176.63;;;14.52;50.50
21401;BME280;18038;50.166;18.908;2022-07-29T02:58:13;98175.84;;;14.45;50.96
21401;BME280;18038;50.166;18.908;2022-07-29T03:01:31;98181.56;;;14.55;50.91
21401;BME280;18038;50.166;18.908;2022-07-29T03:04:40;98179.31;;;14.52;50.50
21401;BME280;18038;50.166;18.908;2022-07-29T03:07:56;98179.69;;;14.55;50.63
21401;BME280;18038;50.166;18.908;2022-07-29T03:11:07;98190.22;;;14.57;50.42
21401;BME280;18038;50.166;18.908;2022-07-29T03:14:17;98181.22;;;14.45;50.98
21401;BME280;18038;50.166;18.908;2022-07-29T03:17:25;98178.28;;;14.46;50.90
21401;BME280;18038;50.166;18.908;2022-07-29T03:20:32;98178.97;;;14.42;50.80
21401;BME280;18038;50.166;18.908;2022-07-29T03:23:43;98177.13;;;14.35;51.32
21401;BME280;18038;50.166;18.908;2022-07-29T03:26:50;98182.13;;;14.32;51.19
21401;BME280;18038;50.166;18.908;2022-07-29T03:29:55;98183.09;;;14.38;51.36
21401;BME280;18038;50.166;18.908;2022-07-29T03:33:01;98179.44;;;14.32;51.75
21401;BME280;18038;50.166;18.908;2022-07-29T03:36:14;98178.63;;;14.25;51.90
21401;BME280;18038;50.166;18.908;2022-07-29T03:39:33;98190.00;;;14.27;51.73
21401;BME280;18038;50.166;18.908;2022-07-29T03:42:45;98181.13;;;14.26;52.13
21401;BME280;18038;50.166;18.908;2022-07-29T03:45:55;98182.66;;;14.41;51.58
21401;BME280;18038;50.166;18.908;2022-07-29T03:49:04;98192.84;;;14.39;51.84
21401;BME280;18038;50.166;18.908;2022-07-29T03:52:15;98187.59;;;14.50;51.61
21401;BME280;18038;50.166;18.908;2022-07-29T03:55:25;98184.47;;;14.53;51.65
21401;BME280;18038;50.166;18.908;2022-07-29T03:58:39;98190.63;;;14.61;51.37
21401;BME280;18038;50.166;18.908;2022-07-29T04:01:46;98179.47;;;14.57;51.17
21401;BME280;18038;50.166;18.908;2022-07-29T04:04:55;98172.72;;;14.73;51.59
21401;BME280;18038;50.166;18.908;2022-07-29T04:08:01;98184.03;;;14.88;51.23
21401;BME280;18038;50.166;18.908;2022-07-29T04:11:09;98176.03;;;14.82;51.57
21401;BME280;18038;50.166;18.908;2022-07-29T04:14:15;98180.13;;;14.84;51.53
21401;BME280;18038;50.166;18.908;2022-07-29T04:17:21;98184.44;;;14.92;51.30
21401;BME280;18038;50.166;18.908;2022-07-29T04:20:26;98188.91;;;14.98;51.25
21401;BME280;18038;50.166;18.908;2022-07-29T04:23:32;98189.50;;;15.25;51.00
21401;BME280;18038;50.166;18.908;2022-07-29T04:26:56;98184.78;;;15.20;50.90
21401;BME280;18038;50.166;18.908;2022-07-29T04:30:03;98179.72;;;15.31;50.94
21401;BME280;18038;50.166;18.908;2022-07-29T04:33:10;98168.50;;;15.52;50.30
21401;BME280;18038;50.166;18.908;2022-07-29T04:36:16;98165.25;;;15.50;50.76
21401;BME280;18038;50.166;18.908;2022-07-29T04:39:30;98162.63;;;15.62;50.36
21401;BME280;18038;50.166;18.908;2022-07-29T04:42:39;98166.59;;;15.96;49.35
21401;BME280;18038;50.166;18.908;2022-07-29T04:45:48;98165.59;;;16.39;48.66
21401;BME280;18038;50.166;18.908;2022-07-29T04:48:54;98169.09;;;16.70;47.87
21401;BME280;18038;50.166;18.908;2022-07-29T04:52:00;98164.91;;;16.86;47.32
21401;BME280;18038;50.166;18.908;2022-07-29T04:55:07;98165.28;;;17.13;46.67
21401;BME280;18038;50.166;18.908;2022-07-29T04:58:16;98169.50;;;17.56;46.12
21401;BME280;18038;50.166;18.908;2022-07-29T05:01:21;98168.03;;;17.89;45.17
21401;BME280;18038;50.166;18.908;2022-07-29T05:04:27;98165.69;;;18.21;44.36
21401;BME280;18038;50.166;18.908;2022-07-29T05:07:33;98171.03;;;18.61;44.04
21401;BME280;18038;50.166;18.908;2022-07-29T05:10:38;98168.28;;;18.90;42.61
21401;BME280;18038;50.166;18.908;2022-07-29T05:13:46;98169.88;;;19.58;41.68
21401;BME280;18038;50.166;18.908;2022-07-29T05:16:52;98165.63;;;19.68;40.98
21401;BME280;18038;50.166;18.908;2022-07-29T05:19:59;98169.34;;;20.00;40.99
21401;BME280;18038;50.166;18.908;2022-07-29T05:23:06;98158.97;;;20.46;40.12
21401;BME280;18038;50.166;18.908;2022-07-29T05:26:15;98164.44;;;19.97;40.96
21401;BME280;18038;50.166;18.908;2022-07-29T05:29:23;98172.25;;;20.16;40.92
21401;BME280;18038;50.166;18.908;2022-07-29T05:32:46;98171.97;;;20.17;40.98
21401;BME280;18038;50.166;18.908;2022-07-29T05:35:51;98165.97;;;20.37;40.82
21401;BME280;18038;50.166;18.908;2022-07-29T05:39:02;98174.50;;;20.24;40.95
21401;BME280;18038;50.166;18.908;2022-07-29T05:42:08;98165.59;;;20.56;40.32
21401;BME280;18038;50.166;18.908;2022-07-29T05:45:17;98175.97;;;21.28;39.35
21401;BME280;18038;50.166;18.908;2022-07-29T05:48:23;98170.47;;;21.18;38.95
21401;BME280;18038;50.166;18.908;2022-07-29T05:51:29;98173.44;;;20.79;39.95
21401;BME280;18038;50.166;18.908;2022-07-29T05:54:35;98175.09;;;21.18;39.73
21401;BME280;18038;50.166;18.908;2022-07-29T05:57:41;98172.56;;;21.06;40.05
21401;BME280;18038;50.166;18.908;2022-07-29T06:00:50;98176.81;;;21.34;39.35
21401;BME280;18038;50.166;18.908;2022-07-29T06:03:58;98176.19;;;21.59;39.36
21401;BME280;18038;50.166;18.908;2022-07-29T06:07:04;98163.25;;;21.82;38.92
21401;BME280;18038;50.166;18.908;2022-07-29T06:10:10;98168.06;;;21.64;39.56
21401;BME280;18038;50.166;18.908;2022-07-29T06:13:16;98156.56;;;21.47;39.78
21401;BME280;18038;50.166;18.908;2022-07-29T06:16:25;98162.72;;;21.32;40.10
21401;BME280;18038;50.166;18.908;2022-07-29T06:19:34;98157.97;;;21.54;40.18
21401;BME280;18038;50.166;18.908;2022-07-29T06:22:40;98163.72;;;21.68;40.40
21401;BME280;18038;50.166;18.908;2022-07-29T06:25:46;98158.72;;;22.08;39.44
21401;BME280;18038;50.166;18.908;2022-07-29T06:28:56;98168.88;;;22.22;39.66
21401;BME280;18038;50.166;18.908;2022-07-29T06:32:05;98170.00;;;22.47;39.40
21401;BME280;18038;50.166;18.908;2022-07-29T06:35:11;98167.00;;;22.38;39.12
21401;BME280;18038;50.166;18.908;2022-07-29T06:38:37;98174.66;;;22.82;38.58
21401;BME280;18038;50.166;18.908;2022-07-29T06:41:52;98177.16;;;22.89;38.79
21401;BME280;18038;50.166;18.908;2022-07-29T06:44:59;98175.25;;;23.05;38.62
21401;BME280;18038;50.166;18.908;2022-07-29T06:48:13;98182.31;;;23.26;38.71
21401;BME280;18038;50.166;18.908;2022-07-29T06:51:20;98185.84;;;23.22;38.66
21401;BME280;18038;50.166;18.908;2022-07-29T06:54:26;98184.44;;;23.75;37.79
21401;BME280;18038;50.166;18.908;2022-07-29T06:57:32;98184.88;;;24.03;37.57
21401;BME280;18038;50.166;18.908;2022-07-29T07:00:38;98174.16;;;24.22;37.11
21401;BME280;18038;50.166;18.908;2022-07-29T07:03:47;98176.44;;;23.94;38.19
21401;BME280;18038;50.166;18.908;2022-07-29T07:06:53;98171.13;;;23.38;39.27
21401;BME280;18038;50.166;18.908;2022-07-29T07:09:59;98165.78;;;23.98;38.35
21401;BME280;18038;50.166;18.908;2022-07-29T07:13:05;98168.03;;;24.46;37.84
21401;BME280;18038;50.166;18.908;2022-07-29T07:16:12;98163.19;;;24.72;37.40
21401;BME280;18038;50.166;18.908;2022-07-29T07:19:21;98169.44;;;25.41;35.90
21401;BME280;18038;50.166;18.908;2022-07-29T07:22:27;98163.19;;;24.72;36.29
21401;BME280;18038;50.166;18.908;2022-07-29T07:25:40;98170.78;;;24.80;36.72
21401;BME280;18038;50.166;18.908;2022-07-29T07:28:46;98180.91;;;24.79;36.86
21401;BME280;18038;50.166;18.908;2022-07-29T07:31:52;98171.16;;;24.68;36.72
21401;BME280;18038;50.166;18.908;2022-07-29T07:35:11;98181.03;;;24.59;37.39
21401;BME280;18038;50.166;18.908;2022-07-29T07:38:17;98171.63;;;24.75;37.40
21401;BME280;18038;50.166;18.908;2022-07-29T07:41:23;98168.69;;;25.35;36.23
21401;BME280;18038;50.166;18.908;2022-07-29T07:44:42;98169.38;;;25.75;35.75
21401;BME280;18038;50.166;18.908;2022-07-29T07:48:12;98171.13;;;25.08;36.73
21401;BME280;18038;50.166;18.908;2022-07-29T07:51:25;98174.59;;;24.89;36.83
21401;BME280;18038;50.166;18.908;2022-07-29T07:54:44;98180.28;;;24.48;37.73
21401;BME280;18038;50.166;18.908;2022-07-29T07:57:52;98170.66;;;24.61;37.66
21401;BME280;18038;50.166;18.908;2022-07-29T08:00:58;98169.22;;;25.37;36.91
21401;BME280;18038;50.166;18.908;2022-07-29T08:04:35;98170.94;;;26.05;34.83
21401;BME280;18038;50.166;18.908;2022-07-29T08:07:47;98170.28;;;25.89;35.84
21401;BME280;18038;50.166;18.908;2022-07-29T08:10:55;98177.13;;;25.39;36.34
21401;BME280;18038;50.166;18.908;2022-07-29T08:14:10;98173.25;;;25.16;36.50
21401;BME280;18038;50.166;18.908;2022-07-29T08:17:19;98175.38;;;25.53;35.85
21401;BME280;18038;50.166;18.908;2022-07-29T08:20:29;98164.66;;;25.27;36.71
21401;BME280;18038;50.166;18.908;2022-07-29T08:23:39;98167.34;;;25.62;36.98
21401;BME280;18038;50.166;18.908;2022-07-29T08:26:54;98168.63;;;25.40;36.48
21401;BME280;18038;50.166;18.908;2022-07-29T08:30:07;98164.50;;;25.72;36.22
21401;BME280;18038;50.166;18.908;2022-07-29T08:33:16;98173.31;;;25.40;36.69
21401;BME280;18038;50.166;18.908;2022-07-29T08:36:22;98175.28;;;25.63;36.71
21401;BME280;18038;50.166;18.908;2022-07-29T08:39:30;98174.75;;;25.61;35.92
21401;BME280;18038;50.166;18.908;2022-07-29T08:42:37;98182.19;;;25.56;36.91
21401;BME280;18038;50.166;18.908;2022-07-29T08:45:45;98175.47;;;26.15;35.54
21401;BME280;18038;50.166;18.908;2022-07-29T08:48:53;98174.97;;;26.13;35.81
21401;BME280;18038;50.166;18.908;2022-07-29T08:52:10;98174.94;;;26.56;34.55
21401;BME280;18038;50.166;18.908;2022-07-29T08:55:19;98172.03;;;26.47;34.46
21401;BME280;18038;50.166;18.908;2022-07-29T08:58:31;98174.38;;;25.92;36.47
21401;BME280;18038;50.166;18.908;2022-07-29T09:01:40;98168.56;;;25.75;36.98
21401;BME280;18038;50.166;18.908;2022-07-29T09:04:50;98161.16;;;25.99;35.80
21401;BME280;18038;50.166;18.908;2022-07-29T09:08:04;98160.25;;;26.28;35.84
21401;BME280;18038;50.166;18.908;2022-07-29T09:11:26;98160.41;;;26.18;35.92
21401;BME280;18038;50.166;18.908;2022-07-29T09:14:32;98172.09;;;26.42;35.54
21401;BME280;18038;50.166;18.908;2022-07-29T09:17:43;98166.94;;;27.44;33.87
21401;BME280;18038;50.166;18.908;2022-07-29T09:20:52;98160.66;;;27.71;33.77
21401;BME280;18038;50.166;18.908;2022-07-29T09:24:14;98165.13;;;27.20;34.04
21401;BME280;18038;50.166;18.908;2022-07-29T09:27:25;98158.47;;;27.40;33.69
21401;BME280;18038;50.166;18.908;2022-07-29T09:30:32;98148.94;;;27.38;34.08
21401;BME280;18038;50.166;18.908;2022-07-29T09:33:38;98151.38;;;27.67;33.43
21401;BME280;18038;50.166;18.908;2022-07-29T09:36:49;98160.59;;;26.97;33.82
21401;BME280;18038;50.166;18.908;2022-07-29T09:39:56;98156.97;;;26.64;34.28
21401;BME280;18038;50.166;18.908;2022-07-29T09:43:13;98160.09;;;27.09;34.10
21401;BME280;18038;50.166;18.908;2022-07-29T09:46:19;98150.28;;;27.08;34.16
21401;BME280;18038;50.166;18.908;2022-07-29T09:49:26;98145.19;;;27.48;33.10
21401;BME280;18038;50.166;18.908;2022-07-29T09:52:32;98142.53;;;28.11;33.08
21401;BME280;18038;50.166;18.908;2022-07-29T09:55:52;98134.53;;;27.87;32.86
21401;BME280;18038;50.166;18.908;2022-07-29T09:59:08;98134.44;;;27.51;33.96
21401;BME280;18038;50.166;18.908;2022-07-29T10:02:15;98136.97;;;28.53;32.59
21401;BME280;18038;50.166;18.908;2022-07-29T10:05:27;98130.47;;;27.71;33.13
21401;BME280;18038;50.166;18.908;2022-07-29T10:08:38;98133.09;;;27.02;33.86
21401;BME280;18038;50.166;18.908;2022-07-29T10:12:02;98127.16;;;26.81;35.10
21401;BME280;18038;50.166;18.908;2022-07-29T10:15:14;98134.16;;;26.87;35.10
21401;BME280;18038;50.166;18.908;2022-07-29T10:18:21;98135.75;;;26.55;36.22
21401;BME280;18038;50.166;18.908;2022-07-29T10:21:27;98134.00;;;26.97;34.96
21401;BME280;18038;50.166;18.908;2022-07-29T10:24:38;98132.47;;;27.24;34.98
21401;BME280;18038;50.166;18.908;2022-07-29T10:27:51;98127.41;;;27.59;33.82
21401;BME280;18038;50.166;18.908;2022-07-29T10:31:17;98129.97;;;27.41;33.59
21401;BME280;18038;50.166;18.908;2022-07-29T10:34:57;98112.50;;;27.65;33.65
21401;BME280;18038;50.166;18.908;2022-07-29T10:38:42;98125.25;;;26.95;34.51
21401;BME280;18038;50.166;18.908;2022-07-29T10:42:04;98122.53;;;27.28;34.77
21401;BME280;18038;50.166;18.908;2022-07-29T10:45:22;98116.56;;;27.07;34.87
21401;BME280;18038;50.166;18.908;2022-07-29T10:48:31;98115.25;;;27.05;35.00
21401;BME280;18038;50.166;18.908;2022-07-29T10:51:57;98118.38;;;27.44;34.88
21401;BME280;18038;50.166;18.908;2022-07-29T10:55:07;98103.44;;;27.37;33.68
21401;BME280;18038;50.166;18.908;2022-07-29T10:58:16;98115.25;;;27.18;34.44
21401;BME280;18038;50.166;18.908;2022-07-29T11:01:29;98122.91;;;26.89;34.88
21401;BME280;18038;50.166;18.908;2022-07-29T11:05:03;98120.50;;;26.49;34.88
21401;BME280;18038;50.166;18.908;2022-07-29T11:08:24;98114.16;;;26.35;35.67
21401;BME280;18038;50.166;18.908;2022-07-29T11:11:32;98111.56;;;26.06;35.49
21401;BME280;18038;50.166;18.908;2022-07-29T11:14:57;98114.25;;;26.11;36.21
21401;BME280;18038;50.166;18.908;2022-07-29T11:18:09;98109.69;;;25.58;36.36
21401;BME280;18038;50.166;18.908;2022-07-29T11:21:39;98111.78;;;25.66;36.96
21401;BME280;18038;50.166;18.908;2022-07-29T11:25:13;98116.56;;;25.56;36.82
21401;BME280;18038;50.166;18.908;2022-07-29T11:28:51;98108.88;;;25.28;37.36
21401;BME280;18038;50.166;18.908;2022-07-29T11:32:10;98116.38;;;25.42;37.59
21401;BME280;18038;50.166;18.908;2022-07-29T11:35:24;98123.09;;;25.79;36.94
21401;BME280;18038;50.166;18.908;2022-07-29T11:38:43;98122.06;;;25.75;36.13
21401;BME280;18038;50.166;18.908;2022-07-29T11:41:49;98110.91;;;26.14;35.33
21401;BME280;18038;50.166;18.908;2022-07-29T11:44:58;98114.41;;;25.77;34.87
21401;BME280;18038;50.166;18.908;2022-07-29T11:48:28;98120.59;;;26.44;34.11
21401;BME280;18038;50.166;18.908;2022-07-29T11:51:37;98107.09;;;25.91;35.39
21401;BME280;18038;50.166;18.908;2022-07-29T11:54:58;98116.91;;;25.92;36.17
21401;BME280;18038;50.166;18.908;2022-07-29T11:58:11;98105.50;;;26.28;35.31
21401;BME280;18038;50.166;18.908;2022-07-29T12:01:26;98110.31;;;26.17;35.46
21401;BME280;18038;50.166;18.908;2022-07-29T12:04:48;98106.97;;;26.39;35.37
21401;BME280;18038;50.166;18.908;2022-07-29T12:07:54;98100.09;;;26.42;34.31
21401;BME280;18038;50.166;18.908;2022-07-29T12:11:02;98106.50;;;25.94;35.46
21401;BME280;18038;50.166;18.908;2022-07-29T12:14:24;98102.78;;;26.09;35.63
21401;BME280;18038;50.166;18.908;2022-07-29T12:17:35;98107.38;;;26.32;35.28
21401;BME280;18038;50.166;18.908;2022-07-29T12:20:43;98106.66;;;26.59;34.28
21401;BME280;18038;50.166;18.908;2022-07-29T12:23:54;98092.94;;;26.27;34.56
21401;BME280;18038;50.166;18.908;2022-07-29T12:27:17;98105.19;;;26.48;34.21
21401;BME280;18038;50.166;18.908;2022-07-29T12:30:36;98096.31;;;26.56;34.19
21401;BME280;18038;50.166;18.908;2022-07-29T12:33:53;98099.16;;;26.84;33.25
21401;BME280;18038;50.166;18.908;2022-07-29T12:37:00;98104.63;;;26.84;33.74
21401;BME280;18038;50.166;18.908;2022-07-29T12:40:09;98107.22;;;27.08;33.51
21401;BME280;18038;50.166;18.908;2022-07-29T12:43:23;98103.38;;;27.09;32.58
21401;BME280;18038;50.166;18.908;2022-07-29T12:46:30;98094.19;;;26.86;32.66
21401;BME280;18038;50.166;18.908;2022-07-29T12:49:36;98086.59;;;26.97;33.65
21401;BME280;18038;50.166;18.908;2022-07-29T12:52:42;98092.47;;;27.23;33.39
21401;BME280;18038;50.166;18.908;2022-07-29T12:55:50;98081.28;;;27.19;32.29
21401;BME280;18038;50.166;18.908;2022-07-29T12:59:00;98085.97;;;27.33;32.79
21401;BME280;18038;50.166;18.908;2022-07-29T13:02:21;98080.06;;;27.39;32.60
21401;BME280;18038;50.166;18.908;2022-07-29T13:05:39;98067.78;;;27.37;33.05
21401;BME280;18038;50.166;18.908;2022-07-29T13:08:59;98061.06;;;27.29;32.05
21401;BME280;18038;50.166;18.908;2022-07-29T13:12:09;98060.34;;;27.10;32.66
21401;BME280;18038;50.166;18.908;2022-07-29T13:15:19;98062.47;;;26.99;33.04
21401;BME280;18038;50.166;18.908;2022-07-29T13:18:28;98067.22;;;26.93;33.29
21401;BME280;18038;50.166;18.908;2022-07-29T13:21:36;98058.22;;;26.74;33.58
21401;BME280;18038;50.166;18.908;2022-07-29T13:24:47;98056.03;;;26.90;33.29
21401;BME280;18038;50.166;18.908;2022-07-29T13:27:57;98038.88;;;26.84;32.76
21401;BME280;18038;50.166;18.908;2022-07-29T13:31:05;98040.25;;;26.68;33.86
21401;BME280;18038;50.166;18.908;2022-07-29T13:34:11;98028.97;;;26.36;33.93
21401;BME280;18038;50.166;18.908;2022-07-29T13:37:17;98029.22;;;26.21;35.00
21401;BME280;18038;50.166;18.908;2022-07-29T13:40:23;98026.47;;;26.40;34.80
21401;BME280;18038;50.166;18.908;2022-07-29T13:43:31;98015.31;;;26.18;34.16
21401;BME280;18038;50.166;18.908;2022-07-29T13:46:39;98002.69;;;26.22;34.83
21401;BME280;18038;50.166;18.908;2022-07-29T13:49:45;98005.94;;;26.56;34.74
21401;BME280;18038;50.166;18.908;2022-07-29T13:52:56;98005.91;;;26.43;34.35
21401;BME280;18038;50.166;18.908;2022-07-29T13:56:06;97999.78;;;26.13;34.19
21401;BME280;18038;50.166;18.908;2022-07-29T13:59:12;97996.38;;;26.02;34.83
21401;BME280;18038;50.166;18.908;2022-07-29T14:02:24;97982.09;;;25.86;34.25
21401;BME280;18038;50.166;18.908;2022-07-29T14:05:31;97990.47;;;25.76;34.83
21401;BME280;18038;50.166;18.908;2022-07-29T14:08:37;97976.72;;;25.81;35.03
21401;BME280;18038;50.166;18.908;2022-07-29T14:11:43;97981.31;;;26.05;34.86
21401;BME280;18038;50.166;18.908;2022-07-29T14:14:51;97985.22;;;26.18;34.84
21401;BME280;18038;50.166;18.908;2022-07-29T14:18:01;97972.69;;;26.30;34.15
21401;BME280;18038;50.166;18.908;2022-07-29T14:21:16;97983.28;;;26.18;32.66
21401;BME280;18038;50.166;18.908;2022-07-29T14:24:29;97965.41;;;25.88;33.57
21401;BME280;18038;50.166;18.908;2022-07-29T14:27:41;97966.97;;;25.75;33.96
21401;BME280;18038;50.166;18.908;2022-07-29T14:30:47;97974.72;;;25.87;34.38
21401;BME280;18038;50.166;18.908;2022-07-29T14:33:55;97964.50;;;25.74;34.33
21401;BME280;18038;50.166;18.908;2022-07-29T14:37:08;97965.16;;;25.84;34.62
21401;BME280;18038;50.166;18.908;2022-07-29T14:40:17;97958.41;;;25.82;34.45
21401;BME280;18038;50.166;18.908;2022-07-29T14:43:23;97957.13;;;25.93;34.30
21401;BME280;18038;50.166;18.908;2022-07-29T14:46:28;97965.47;;;26.02;34.22
21401;BME280;18038;50.166;18.908;2022-07-29T14:49:36;97954.81;;;26.00;33.97
21401;BME280;18038;50.166;18.908;2022-07-29T14:52:42;97970.28;;;25.91;34.38
21401;BME280;18038;50.166;18.908;2022-07-29T14:55:50;97960.75;;;25.69;35.18
21401;BME280;18038;50.166;18.908;2022-07-29T14:58:56;97965.72;;;25.67;34.40
21401;BME280;18038;50.166;18.908;2022-07-29T15:02:05;97973.09;;;25.48;35.26
21401;BME280;18038;50.166;18.908;2022-07-29T15:05:25;97964.09;;;25.66;35.13
21401;BME280;18038;50.166;18.908;2022-07-29T15:08:33;97964.09;;;25.47;34.76
21401;BME280;18038;50.166;18.908;2022-07-29T15:11:39;97976.81;;;25.33;35.54
21401;BME280;18038;50.166;18.908;2022-07-29T15:14:45;97984.47;;;25.31;35.44
21401;BME280;18038;50.166;18.908;2022-07-29T15:17:50;97988.59;;;25.28;35.97
21401;BME280;18038;50.166;18.908;2022-07-29T15:20:58;97986.94;;;25.33;36.23
21401;BME280;18038;50.166;18.908;2022-07-29T15:24:05;98001.19;;;25.54;35.68
21401;BME280;18038;50.166;18.908;2022-07-29T15:27:11;97998.00;;;25.46;35.50
21401;BME280;18038;50.166;18.908;2022-07-29T15:30:30;97993.69;;;25.16;36.43
21401;BME280;18038;50.166;18.908;2022-07-29T15:33:35;97996.31;;;25.02;36.51
21401;BME280;18038;50.166;18.908;2022-07-29T15:36:51;98003.50;;;25.17;36.80
21401;BME280;18038;50.166;18.908;2022-07-29T15:40:02;98005.78;;;25.34;37.05
21401;BME280;18038;50.166;18.908;2022-07-29T15:43:12;98003.81;;;25.40;36.22
21401;BME280;18038;50.166;18.908;2022-07-29T15:46:19;98005.41;;;25.41;35.97
21401;BME280;18038;50.166;18.908;2022-07-29T15:49:41;98013.53;;;25.27;36.32
21401;BME280;18038;50.166;18.908;2022-07-29T15:52:52;98005.00;;;25.28;36.46
21401;BME280;18038;50.166;18.908;2022-07-29T15:55:58;97997.53;;;25.15;36.38
21401;BME280;18038;50.166;18.908;2022-07-29T15:59:08;98011.50;;;25.14;36.94
21401;BME280;18038;50.166;18.908;2022-07-29T16:02:23;98003.44;;;25.22;37.25
21401;BME280;18038;50.166;18.908;2022-07-29T16:05:29;98011.59;;;25.27;36.93
21401;BME280;18038;50.166;18.908;2022-07-29T16:08:38;98009.03;;;25.12;37.52
21401;BME280;18038;50.166;18.908;2022-07-29T16:11:44;98002.13;;;24.67;38.11
21401;BME280;18038;50.166;18.908;2022-07-29T16:14:52;98012.97;;;24.08;40.12
21401;BME280;18038;50.166;18.908;2022-07-29T16:17:58;98017.88;;;22.86;43.80
21401;BME280;18038;50.166;18.908;2022-07-29T16:21:04;98021.41;;;22.15;46.34
21401;BME280;18038;50.166;18.908;2022-07-29T16:24:12;98018.66;;;22.00;46.84
21401;BME280;18038;50.166;18.908;2022-07-29T16:27:20;98008.38;;;22.17;46.08
21401;BME280;18038;50.166;18.908;2022-07-29T16:30:38;98003.66;;;21.67;47.46
21401;BME280;18038;50.166;18.908;2022-07-29T16:33:45;97996.25;;;21.47;48.70
21401;BME280;18038;50.166;18.908;2022-07-29T16:36:57;97986.03;;;21.11;49.76
21401;BME280;18038;50.166;18.908;2022-07-29T16:40:07;97987.91;;;21.06;49.82
21401;BME280;18038;50.166;18.908;2022-07-29T16:43:16;97987.97;;;21.26;49.84
21401;BME280;18038;50.166;18.908;2022-07-29T16:46:22;98002.13;;;21.28;50.77